createdAt,value
2023-01-26T00:02:03.938Z,23.15
2023-01-26T00:04:30.701Z,24.15
2023-01-26T00:06:57.434Z,25.33
2023-01-26T00:09:26.407Z,24.15
2023-01-26T00:11:53.162Z,26.65
2023-01-26T00:14:19.956Z,28.23
2023-01-26T00:16:46.733Z,27.40
2023-01-26T00:19:13.482Z,25.88
2023-01-26T00:21:40.230Z,24.17
2023-01-26T00:24:07.375Z,25.90
2023-01-26T00:26:34.243Z,26.95
2023-01-26T00:29:04.481Z,26.88
2023-01-26T00:31:31.279Z,25.85
2023-01-26T00:34:00.698Z,26.80
2023-01-26T00:36:28.455Z,22.73
2023-01-26T00:38:55.244Z,26.50
2023-01-26T00:41:40.419Z,23.83
2023-01-26T00:44:07.269Z,23.85
2023-01-26T00:46:34.162Z,25.70
2023-01-26T00:49:02.696Z,24.33
2023-01-26T00:51:29.384Z,23.45
2023-01-26T00:53:56.207Z,22.42
2023-01-26T00:56:28.822Z,25.48
2023-01-26T00:58:55.554Z,23.50
2023-01-26T01:01:25.024Z,19.73
2023-01-26T01:03:52.263Z,21.70
2023-01-26T01:06:18.993Z,22.17
2023-01-26T01:08:45.835Z,24.40
2023-01-26T01:11:12.843Z,22.77
2023-01-26T01:13:39.658Z,22.35
2023-01-26T01:16:11.825Z,22.17
2023-01-26T01:18:39.444Z,25.23
2023-01-26T01:21:07.803Z,24.23
2023-01-26T01:23:34.640Z,26.83
2023-01-26T01:26:02.315Z,17.60
2023-01-26T01:28:29.247Z,18.27
2023-01-26T01:31:01.202Z,20.00
2023-01-26T01:33:27.984Z,22.33
2023-01-26T01:35:59.337Z,20.58
2023-01-26T01:38:26.841Z,22.42
2023-01-26T01:40:57.014Z,18.00
2023-01-26T01:43:25.089Z,19.50
2023-01-26T01:45:55.198Z,16.42
2023-01-26T01:48:25.238Z,19.25
2023-01-26T01:50:58.770Z,19.67
2023-01-26T01:53:30.771Z,19.45
2023-01-26T01:56:02.355Z,20.05
2023-01-26T01:58:38.494Z,19.05
2023-01-26T02:01:05.548Z,21.77
2023-01-26T02:03:34.179Z,16.83
2023-01-26T02:06:16.774Z,19.58
2023-01-26T02:08:47.668Z,19.30
2023-01-26T02:11:18.427Z,17.63
2023-01-26T02:13:50.951Z,22.27
2023-01-26T02:16:19.109Z,18.52
2023-01-26T02:18:46.538Z,21.75
2023-01-26T02:21:17.399Z,20.27
2023-01-26T02:23:59.109Z,18.48
2023-01-26T02:26:34.904Z,20.95
2023-01-26T02:29:04.550Z,25.50
2023-01-26T02:31:34.287Z,19.58
2023-01-26T02:34:03.827Z,19.65
2023-01-26T02:36:34.821Z,18.85
2023-01-26T02:39:32.894Z,19.38
2023-01-26T02:42:18.297Z,17.23
2023-01-26T02:44:45.157Z,21.33
2023-01-26T02:47:14.240Z,19.73
2023-01-26T02:49:47.214Z,22.77
2023-01-26T02:52:15.269Z,21.77
2023-01-26T02:55:00.546Z,24.95
2023-01-26T02:57:29.783Z,22.20
2023-01-26T02:59:56.551Z,21.33
2023-01-26T03:02:26.259Z,17.15
2023-01-26T03:04:53.242Z,20.05
2023-01-26T03:07:20.076Z,23.38
2023-01-26T03:09:46.789Z,21.52
2023-01-26T03:12:13.516Z,19.67
2023-01-26T03:14:40.276Z,21.48
2023-01-26T03:17:07.076Z,18.65
2023-01-26T03:19:52.458Z,20.65
2023-01-26T03:25:05.820Z,20.17
2023-01-26T03:27:50.254Z,24.85
2023-01-26T03:30:19.578Z,21.98
2023-01-26T03:32:48.553Z,19.13
2023-01-26T03:35:16.056Z,18.58
2023-01-26T03:37:44.598Z,17.80
2023-01-26T03:40:31.620Z,18.70
2023-01-26T03:43:17.061Z,20.88
2023-01-26T03:46:02.373Z,21.88
2023-01-26T03:48:47.925Z,17.52
2023-01-26T03:51:33.134Z,19.02
2023-01-26T03:54:18.434Z,20.02
2023-01-26T03:56:45.140Z,20.88
2023-01-26T03:59:15.312Z,23.38
2023-01-26T04:02:03.700Z,19.73
2023-01-26T04:04:49.571Z,19.77
2023-01-26T04:07:34.977Z,23.17
2023-01-26T04:10:01.748Z,19.23
2023-01-26T04:12:28.491Z,20.45
2023-01-26T04:15:13.872Z,22.02
2023-01-26T04:17:59.404Z,23.17
2023-01-26T04:20:44.725Z,19.67
2023-01-26T04:23:18.620Z,21.35
2023-01-26T04:25:45.408Z,18.70
2023-01-26T04:28:12.151Z,22.10
2023-01-26T04:30:39.412Z,20.85
2023-01-26T04:33:06.160Z,22.25
2023-01-26T04:35:33.818Z,19.27
2023-01-26T04:38:00.538Z,22.42
2023-01-26T04:40:27.292Z,22.27
2023-01-26T04:42:54.031Z,21.05
2023-01-26T04:45:20.779Z,19.23
2023-01-26T04:47:47.570Z,18.77
2023-01-26T04:50:14.652Z,19.75
2023-01-26T04:52:41.397Z,21.45
2023-01-26T04:55:08.537Z,18.38
2023-01-26T04:57:35.256Z,20.75
2023-01-26T05:00:02.104Z,18.30
2023-01-26T05:02:28.915Z,17.45
2023-01-26T05:04:55.648Z,15.82
2023-01-26T05:07:22.348Z,16.75
2023-01-26T05:09:49.109Z,18.95
2023-01-26T05:12:33.776Z,18.33
2023-01-26T05:15:00.516Z,21.55
2023-01-26T05:17:27.270Z,17.15
2023-01-26T05:19:54.117Z,18.85
2023-01-26T05:22:20.900Z,17.98
2023-01-26T05:24:47.651Z,17.52
2023-01-26T05:27:23.209Z,18.48
2023-01-26T05:29:50.870Z,18.00
2023-01-26T05:32:18.142Z,20.75
2023-01-26T05:34:45.176Z,15.45
2023-01-26T05:37:14.539Z,17.70
2023-01-26T05:39:41.788Z,18.98
2023-01-26T05:42:08.564Z,16.80
2023-01-26T05:44:35.334Z,19.65
2023-01-26T05:47:02.042Z,15.73
2023-01-26T05:49:28.903Z,17.20
2023-01-26T05:51:55.734Z,17.45
2023-01-26T05:54:22.505Z,18.30
2023-01-26T05:56:49.344Z,15.43
2023-01-26T05:59:16.272Z,17.60
2023-01-26T06:01:43.006Z,17.63
2023-01-26T06:04:09.842Z,20.08
2023-01-26T06:06:38.893Z,18.20
2023-01-26T06:09:05.672Z,15.75
2023-01-26T06:11:33.243Z,15.95
2023-01-26T06:14:00.008Z,14.23
2023-01-26T06:16:26.796Z,18.95
2023-01-26T06:18:53.562Z,15.82
2023-01-26T06:21:20.256Z,20.35
2023-01-26T06:23:47.152Z,17.63
2023-01-26T06:26:15.288Z,17.33
2023-01-26T06:28:42.002Z,15.05
2023-01-26T06:31:08.950Z,17.98
2023-01-26T06:33:37.440Z,15.05
2023-01-26T06:36:06.073Z,16.30
2023-01-26T06:38:33.129Z,16.83
2023-01-26T06:41:03.226Z,16.10
2023-01-26T06:43:31.180Z,18.50
2023-01-26T06:45:58.582Z,16.70
2023-01-26T06:48:29.744Z,16.88
2023-01-26T06:51:25.478Z,13.82
2023-01-26T06:53:57.255Z,17.02
2023-01-26T06:56:24.809Z,18.08
2023-01-26T06:58:51.613Z,16.33
2023-01-26T07:01:21.671Z,17.00
2023-01-26T07:03:49.871Z,15.50
2023-01-26T07:06:16.704Z,17.70
2023-01-26T07:08:43.841Z,15.07
2023-01-26T07:11:12.530Z,17.08
2023-01-26T07:13:39.927Z,15.50
2023-01-26T07:16:12.700Z,16.65
2023-01-26T07:18:39.546Z,24.80
2023-01-26T07:21:11.575Z,34.22
2023-01-26T07:23:38.629Z,32.40
2023-01-26T07:26:06.911Z,28.35
2023-01-26T07:28:38.659Z,40.53
2023-01-26T07:31:08.770Z,22.15
2023-01-26T07:33:35.944Z,28.38
2023-01-26T07:36:04.155Z,20.25
2023-01-26T07:38:30.971Z,17.83
2023-01-26T07:40:57.969Z,21.65
2023-01-26T07:43:24.846Z,20.70
2023-01-26T07:45:53.991Z,18.25
2023-01-26T07:48:23.219Z,18.77
2023-01-26T07:50:50.859Z,20.13
2023-01-26T07:53:23.021Z,20.60
2023-01-26T07:55:50.035Z,22.92
2023-01-26T07:58:18.639Z,17.70
2023-01-26T08:00:47.256Z,17.33
2023-01-26T08:03:14.372Z,17.00
2023-01-26T08:05:43.233Z,18.80
2023-01-26T08:08:10.249Z,17.23
2023-01-26T08:10:37.049Z,18.88
2023-01-26T08:13:03.881Z,18.83
2023-01-26T08:15:30.969Z,18.58
2023-01-26T08:17:57.788Z,18.08
2023-01-26T08:20:24.542Z,16.42
2023-01-26T08:22:51.329Z,18.13
2023-01-26T08:25:18.132Z,21.02
2023-01-26T08:27:44.854Z,15.50
2023-01-26T08:30:12.746Z,17.30
2023-01-26T08:32:39.736Z,20.00
2023-01-26T08:35:07.039Z,19.27
2023-01-26T08:37:33.903Z,17.20
2023-01-26T08:40:00.716Z,19.00
2023-01-26T08:42:27.467Z,18.63
2023-01-26T08:44:54.217Z,16.40
2023-01-26T08:47:21.000Z,18.00
2023-01-26T08:49:47.815Z,16.77
2023-01-26T08:52:14.731Z,19.02
2023-01-26T08:54:41.524Z,18.52
2023-01-26T08:57:08.283Z,20.67
2023-01-26T08:59:35.085Z,15.27
2023-01-26T09:02:01.931Z,18.10
2023-01-26T09:04:29.026Z,19.42
2023-01-26T09:06:56.183Z,18.50
2023-01-26T09:09:23.094Z,17.42
2023-01-26T09:11:49.907Z,19.83
2023-01-26T09:14:16.699Z,21.45
2023-01-26T09:16:43.485Z,19.50
2023-01-26T09:19:10.428Z,17.17
2023-01-26T09:21:37.205Z,20.17
2023-01-26T09:26:38.432Z,19.27
2023-01-26T09:29:05.183Z,17.17
2023-01-26T09:31:32.022Z,22.67
2023-01-26T09:33:58.887Z,25.40
2023-01-26T09:36:25.718Z,22.45
2023-01-26T09:38:54.125Z,19.92
2023-01-26T09:41:37.765Z,18.10
2023-01-26T09:44:11.245Z,19.50
2023-01-26T09:47:05.899Z,15.93
2023-01-26T09:49:55.633Z,18.20
2023-01-26T09:52:33.610Z,17.73
2023-01-26T09:58:56.415Z,17.90
2023-01-26T10:01:40.816Z,17.83
2023-01-26T10:04:30.044Z,18.33
2023-01-26T10:06:58.479Z,19.65
2023-01-26T10:09:32.786Z,21.73
2023-01-26T10:12:33.931Z,19.00
2023-01-26T10:15:13.396Z,20.60
2023-01-26T10:17:42.891Z,21.38
2023-01-26T10:20:15.737Z,23.35
2023-01-26T10:22:46.632Z,21.60
2023-01-26T10:25:20.443Z,24.20
2023-01-26T10:27:47.286Z,18.70
2023-01-26T10:30:18.844Z,20.73
2023-01-26T10:32:48.158Z,18.55
2023-01-26T10:35:25.438Z,18.70
2023-01-26T10:37:53.177Z,17.52
2023-01-26T10:40:22.727Z,20.50
2023-01-26T10:43:00.225Z,18.10
2023-01-26T10:45:33.881Z,18.45
2023-01-26T10:48:26.718Z,21.90
2023-01-26T10:50:54.923Z,22.80
2023-01-26T10:53:29.995Z,20.13
2023-01-26T10:56:26.396Z,22.55
2023-01-26T10:58:55.994Z,20.83
2023-01-26T11:01:27.715Z,16.75
2023-01-26T11:04:12.227Z,17.48
2023-01-26T11:06:39.284Z,18.60
2023-01-26T11:09:24.685Z,15.02
2023-01-26T11:11:59.157Z,16.50
2023-01-26T11:14:26.069Z,17.73
2023-01-26T11:17:28.133Z,19.00
2023-01-26T11:20:17.135Z,19.33
2023-01-26T11:22:48.305Z,14.63
2023-01-26T11:25:32.352Z,17.23
2023-01-26T11:28:08.157Z,16.67
2023-01-26T11:31:20.230Z,17.48
2023-01-26T11:34:17.596Z,17.80
2023-01-26T11:38:18.589Z,17.38
2023-01-26T11:41:30.589Z,16.17
2023-01-26T11:47:45.855Z,17.98
2023-01-26T11:50:45.901Z,21.27
2023-01-26T11:53:19.584Z,19.42
2023-01-26T11:56:18.534Z,18.05
2023-01-26T11:58:49.826Z,16.85
2023-01-26T12:01:28.999Z,19.17
2023-01-26T12:03:57.625Z,16.85
2023-01-26T12:06:27.564Z,17.58
2023-01-26T12:09:21.469Z,18.33
2023-01-26T12:12:23.661Z,17.60
2023-01-26T12:15:00.134Z,20.17
2023-01-26T12:26:04.716Z,19.20
2023-01-26T12:28:42.387Z,17.45
2023-01-26T12:37:53.950Z,16.10
2023-01-26T12:50:03.136Z,17.38
2023-01-26T12:52:52.858Z,19.17
2023-01-26T12:55:35.026Z,23.52
2023-01-26T12:58:05.110Z,14.48
2023-01-26T13:00:35.619Z,15.90
2023-01-26T13:03:16.053Z,16.20
2023-01-26T13:06:08.969Z,15.07
2023-01-26T13:08:35.988Z,15.18
2023-01-26T13:11:07.521Z,18.80
2023-01-26T13:13:55.845Z,18.90
2023-01-26T13:16:25.789Z,21.08
2023-01-26T13:18:53.811Z,21.88
2023-01-26T13:21:43.672Z,17.10
2023-01-26T13:24:16.428Z,17.10
2023-01-26T13:26:50.086Z,17.45
2023-01-26T13:29:27.274Z,16.60
2023-01-26T13:31:57.865Z,18.58
2023-01-26T13:34:34.150Z,14.32
2023-01-26T13:37:09.337Z,16.98
2023-01-26T13:39:39.400Z,16.75
2023-01-26T13:43:14.580Z,14.68
2023-01-26T13:45:58.940Z,15.35
2023-01-26T13:48:41.804Z,17.42
2023-01-26T13:51:13.175Z,17.25
2023-01-26T13:54:01.485Z,14.60
2023-01-26T13:56:32.964Z,13.10
2023-01-26T13:59:13.585Z,11.32
2023-01-26T14:01:52.481Z,12.52
2023-01-26T14:04:27.604Z,13.93
2023-01-26T14:07:19.058Z,11.80
2023-01-26T14:09:49.738Z,12.23
2023-01-26T14:12:26.653Z,14.90
2023-01-26T14:15:03.198Z,9.05
2023-01-26T14:17:31.373Z,12.18
2023-01-26T14:20:03.743Z,13.13
2023-01-26T14:22:30.591Z,10.70
2023-01-26T14:24:57.358Z,14.18
2023-01-26T14:27:33.366Z,14.18
2023-01-26T14:30:02.084Z,14.13
2023-01-26T14:32:29.914Z,17.48
2023-01-26T14:34:59.246Z,15.82
2023-01-26T14:37:27.957Z,14.70
2023-01-26T14:40:24.308Z,15.55
2023-01-26T14:42:53.589Z,11.80
2023-01-26T14:45:29.525Z,17.30
2023-01-26T14:48:01.393Z,10.93
2023-01-26T14:50:32.417Z,16.90
2023-01-26T14:53:01.066Z,15.77
2023-01-26T14:55:30.459Z,10.02
2023-01-26T14:57:58.566Z,14.27
2023-01-26T15:00:32.672Z,10.05
2023-01-26T15:03:04.471Z,12.88
2023-01-26T15:05:37.585Z,9.55
2023-01-26T15:08:05.835Z,11.43
2023-01-26T15:10:37.096Z,11.95
2023-01-26T15:13:11.392Z,11.77
2023-01-26T15:15:43.363Z,16.05
2023-01-26T15:18:13.078Z,15.35
2023-01-26T15:21:00.289Z,13.02
2023-01-26T15:23:28.934Z,12.18
2023-01-26T15:26:03.219Z,12.38
2023-01-26T15:28:30.137Z,10.32
2023-01-26T15:30:57.395Z,12.85
2023-01-26T15:33:40.401Z,12.82
2023-01-26T15:36:22.309Z,11.43
2023-01-26T15:38:49.074Z,10.65
2023-01-26T15:41:16.209Z,10.05
2023-01-26T15:43:42.944Z,12.23
2023-01-26T15:46:10.651Z,11.85
2023-01-26T15:48:37.713Z,12.10
2023-01-26T15:51:10.652Z,11.43
2023-01-26T15:53:37.385Z,11.35
2023-01-26T15:56:04.248Z,12.65
2023-01-26T15:58:34.750Z,14.77
2023-01-26T16:01:01.988Z,15.05
2023-01-26T16:03:28.943Z,16.27
2023-01-26T16:05:55.800Z,15.73
2023-01-26T16:08:22.549Z,14.10
2023-01-26T16:10:49.635Z,13.00
2023-01-26T16:13:18.524Z,11.00
2023-01-26T16:15:53.830Z,11.82
2023-01-26T16:18:20.966Z,9.70
2023-01-26T16:20:49.962Z,9.10
2023-01-26T16:23:28.622Z,10.57
2023-01-26T16:25:55.901Z,12.95
2023-01-26T16:28:22.660Z,11.52
2023-01-26T16:30:50.913Z,11.98
2023-01-26T16:33:24.657Z,11.90
2023-01-26T16:35:51.849Z,11.88
2023-01-26T16:38:18.678Z,11.65
2023-01-26T16:40:49.531Z,10.55
2023-01-26T16:43:27.424Z,10.63
2023-01-26T16:45:54.772Z,11.07
2023-01-26T16:48:22.798Z,10.27
2023-01-26T16:50:53.824Z,12.50
2023-01-26T16:53:32.968Z,11.75
2023-01-26T16:55:59.917Z,10.50
2023-01-26T16:58:26.812Z,11.70
2023-01-26T17:00:55.189Z,16.02
2023-01-26T17:03:22.102Z,15.38
2023-01-26T17:05:50.634Z,15.13
2023-01-26T17:08:17.547Z,14.73
2023-01-26T17:11:00.689Z,12.10
2023-01-26T17:13:28.820Z,12.35
2023-01-26T17:15:57.654Z,11.65
2023-01-26T17:18:25.002Z,12.52
2023-01-26T17:20:51.944Z,11.05
2023-01-26T17:23:18.730Z,11.52
2023-01-26T17:25:46.635Z,10.70
2023-01-26T17:28:13.396Z,14.88
2023-01-26T17:30:40.201Z,16.23
2023-01-26T17:33:06.972Z,15.30
2023-01-26T17:35:33.724Z,18.00
2023-01-26T17:38:00.480Z,18.13
2023-01-26T17:40:27.263Z,14.43
2023-01-26T17:42:53.978Z,14.55
2023-01-26T17:45:20.862Z,14.45
2023-01-26T17:47:47.591Z,12.38
2023-01-26T17:50:14.643Z,13.85
2023-01-26T17:52:41.400Z,11.35
2023-01-26T17:55:09.805Z,11.23
2023-01-26T17:57:36.787Z,12.38
2023-01-26T18:00:04.712Z,12.82
2023-01-26T18:02:31.943Z,14.85
2023-01-26T18:04:58.799Z,11.07
2023-01-26T18:07:25.567Z,9.70
2023-01-26T18:09:52.314Z,11.15
2023-01-26T18:12:19.060Z,12.75
2023-01-26T18:14:45.828Z,12.32
2023-01-26T18:17:12.515Z,13.00
2023-01-26T18:19:39.216Z,12.00
2023-01-26T18:22:05.957Z,12.63
2023-01-26T18:24:32.739Z,18.75
2023-01-26T18:26:59.464Z,18.85
2023-01-26T18:29:27.354Z,18.13
2023-01-26T18:31:54.303Z,13.45
2023-01-26T18:34:21.220Z,15.40
2023-01-26T18:36:48.224Z,12.00
2023-01-26T18:39:17.062Z,12.93
2023-01-26T18:41:44.312Z,13.02
2023-01-26T18:44:12.379Z,15.35
2023-01-26T18:46:39.485Z,14.75
2023-01-26T18:49:06.393Z,15.02
2023-01-26T18:51:35.650Z,12.15
2023-01-26T18:54:04.253Z,13.93
2023-01-26T18:56:31.423Z,14.77
2023-01-26T18:58:58.269Z,13.00
2023-01-26T19:01:26.219Z,17.90
2023-01-26T19:03:58.614Z,18.67
2023-01-26T19:09:01.259Z,15.27
2023-01-26T19:11:31.025Z,13.52
2023-01-26T19:13:58.482Z,31.83
2023-01-26T19:16:26.048Z,30.55
2023-01-26T19:18:54.269Z,29.38
2023-01-26T19:21:24.396Z,22.65
2023-01-26T19:23:53.156Z,16.42
2023-01-26T19:26:23.436Z,16.55
2023-01-26T19:28:51.053Z,15.52
2023-01-26T19:31:19.543Z,17.83
2023-01-26T19:33:53.857Z,19.98
2023-01-26T19:36:20.852Z,18.98
2023-01-26T19:38:48.007Z,21.27
2023-01-26T19:41:15.700Z,20.35
2023-01-26T19:43:43.067Z,28.17
2023-01-26T19:46:11.929Z,41.95
2023-01-26T19:48:39.002Z,35.75
2023-01-26T19:51:10.233Z,23.40
2023-01-26T19:53:39.700Z,21.67
2023-01-26T19:56:11.729Z,18.45
2023-01-26T19:58:39.401Z,15.57
2023-01-26T20:01:10.031Z,17.90
2023-01-26T20:03:37.764Z,19.45
2023-01-26T20:06:05.663Z,18.23
2023-01-26T20:08:32.798Z,20.70
2023-01-26T20:11:09.989Z,19.50
2023-01-26T20:13:37.074Z,23.13
2023-01-26T20:16:06.831Z,31.83
2023-01-26T20:18:34.254Z,20.52
2023-01-26T20:21:01.472Z,17.42
2023-01-26T20:23:28.547Z,18.75
2023-01-26T20:26:09.881Z,17.65
2023-01-26T20:28:38.051Z,19.08
2023-01-26T20:31:16.774Z,14.50
2023-01-26T20:33:47.611Z,18.73
2023-01-26T20:36:20.484Z,15.65
2023-01-26T20:38:49.525Z,15.73
2023-01-26T20:41:18.993Z,18.55
2023-01-26T20:43:58.774Z,17.15
2023-01-26T20:46:28.010Z,18.00
2023-01-26T20:48:55.723Z,18.02
2023-01-26T20:51:26.345Z,16.50
2023-01-26T20:53:53.069Z,16.52
2023-01-26T20:56:21.819Z,18.30
2023-01-26T20:58:51.807Z,17.15
2023-01-26T21:01:19.023Z,18.05
2023-01-26T21:03:46.291Z,16.52
2023-01-26T21:06:16.260Z,17.10
2023-01-26T21:08:44.404Z,19.67
2023-01-26T21:11:13.509Z,18.60
2023-01-26T21:13:44.015Z,19.65
2023-01-26T21:16:13.658Z,20.60
2023-01-26T21:18:40.629Z,21.98
2023-01-26T21:21:10.624Z,21.65
2023-01-26T21:26:08.139Z,21.17
2023-01-26T21:28:34.849Z,20.58
2023-01-26T21:31:02.626Z,21.75
2023-01-26T21:33:30.786Z,20.77
2023-01-26T21:35:58.640Z,20.55
2023-01-26T21:38:25.768Z,18.65
2023-01-26T21:41:04.027Z,21.70
2023-01-26T21:43:32.967Z,17.38
2023-01-26T21:46:00.944Z,18.08
2023-01-26T21:48:27.973Z,22.27
2023-01-26T21:51:17.704Z,22.15
2023-01-26T21:53:45.066Z,15.85
2023-01-26T21:56:14.732Z,18.27
2023-01-26T21:58:54.171Z,17.92
2023-01-26T22:01:21.531Z,16.83
2023-01-26T22:03:48.730Z,15.00
2023-01-26T22:06:15.745Z,17.92
2023-01-26T22:08:42.439Z,18.55
2023-01-26T22:11:09.298Z,20.70
2023-01-26T22:13:36.864Z,20.63
2023-01-26T22:16:04.677Z,19.60
2023-01-26T22:18:31.719Z,22.80
2023-01-26T22:20:58.555Z,18.25
2023-01-26T22:23:25.434Z,20.48
2023-01-26T22:25:52.225Z,16.88
2023-01-26T22:28:18.965Z,16.33
2023-01-26T22:30:45.716Z,19.13
2023-01-26T22:33:12.441Z,20.13
2023-01-26T22:35:39.180Z,21.40
2023-01-26T22:38:05.918Z,19.90
2023-01-26T22:40:32.705Z,20.40
2023-01-26T22:42:59.819Z,17.60
2023-01-26T22:45:26.597Z,18.30
2023-01-26T22:47:53.560Z,16.70
2023-01-26T22:50:20.350Z,15.95
2023-01-26T22:52:47.076Z,24.33
2023-01-26T22:55:13.834Z,17.58
2023-01-26T22:57:40.599Z,21.42
2023-01-26T23:00:08.120Z,14.75
2023-01-26T23:02:35.094Z,18.83
2023-01-26T23:05:01.942Z,19.27
2023-01-26T23:07:29.211Z,16.90
2023-01-26T23:09:55.945Z,19.60
2023-01-26T23:12:22.771Z,23.33
2023-01-26T23:14:49.569Z,22.58
2023-01-26T23:17:16.447Z,20.25
2023-01-26T23:19:43.209Z,19.83
2023-01-26T23:22:09.964Z,21.15
2023-01-26T23:24:36.736Z,26.08
2023-01-26T23:27:03.538Z,23.55
2023-01-26T23:29:30.270Z,18.58
2023-01-26T23:31:57.102Z,19.45
2023-01-26T23:34:23.965Z,18.08
2023-01-26T23:36:50.739Z,23.98
2023-01-26T23:39:17.516Z,21.98
2023-01-26T23:41:44.293Z,17.10
2023-01-26T23:44:13.129Z,19.08
2023-01-26T23:46:39.944Z,21.58
2023-01-26T23:49:06.943Z,18.63
2023-01-26T23:51:33.798Z,22.15
2023-01-26T23:54:00.542Z,19.02
2023-01-26T23:56:27.334Z,18.33
2023-01-26T23:58:54.127Z,21.55
